createdAt,value
2022-12-13T00:00:35.297Z,56.30
2022-12-13T00:01:35.315Z,50.30
2022-12-13T00:02:35.335Z,50.60
2022-12-13T00:03:35.293Z,48.50
2022-12-13T00:04:35.247Z,53.00
2022-12-13T00:05:35.251Z,52.10
2022-12-13T00:06:35.272Z,48.40
2022-12-13T00:07:35.234Z,51.70
2022-12-13T00:08:35.223Z,48.80
2022-12-13T00:09:35.201Z,50.80
2022-12-13T00:10:35.218Z,50.20
2022-12-13T00:11:35.219Z,51.00
2022-12-13T00:12:35.207Z,50.10
2022-12-13T00:13:35.166Z,48.70
2022-12-13T00:14:35.158Z,48.00
2022-12-13T00:15:35.145Z,48.90
2022-12-13T00:16:35.156Z,52.60
2022-12-13T00:17:35.151Z,55.30
2022-12-13T00:18:35.120Z,49.30
2022-12-13T00:19:35.125Z,49.80
2022-12-13T00:20:35.109Z,49.80
2022-12-13T00:21:35.082Z,50.90
2022-12-13T00:22:35.079Z,51.70
2022-12-13T00:23:35.091Z,50.50
2022-12-13T00:24:35.096Z,50.30
2022-12-13T00:25:35.054Z,48.60
2022-12-13T00:26:35.050Z,47.20
2022-12-13T00:27:35.038Z,50.60
2022-12-13T00:28:35.026Z,49.90
2022-12-13T00:29:35.049Z,53.30
2022-12-13T00:30:35.044Z,50.10
2022-12-13T00:32:37.000Z,49.20
2022-12-13T00:33:35.021Z,55.20
2022-12-13T00:34:34.984Z,53.30
2022-12-13T00:35:34.957Z,52.10
2022-12-13T00:36:34.967Z,47.60
2022-12-13T00:37:34.942Z,50.50
2022-12-13T00:38:34.926Z,50.40
2022-12-13T00:39:34.967Z,49.70
2022-12-13T00:40:34.922Z,49.10
2022-12-13T00:41:34.906Z,47.60
2022-12-13T00:42:34.909Z,48.80
2022-12-13T00:43:34.875Z,51.30
2022-12-13T00:44:34.907Z,49.20
2022-12-13T00:45:34.870Z,50.60
2022-12-13T00:46:34.884Z,54.40
2022-12-13T00:47:34.850Z,53.40
2022-12-13T00:48:34.845Z,53.70
2022-12-13T00:49:34.889Z,60.40
2022-12-13T00:50:34.824Z,46.40
2022-12-13T00:51:34.834Z,49.80
2022-12-13T00:52:34.806Z,56.70
2022-12-13T00:53:34.796Z,48.30
2022-12-13T00:54:34.780Z,55.00
2022-12-13T00:55:34.783Z,52.20
2022-12-13T00:56:34.798Z,51.40
2022-12-13T00:57:34.757Z,50.50
2022-12-13T00:58:34.760Z,48.00
2022-12-13T00:59:34.753Z,49.20
2022-12-13T01:00:34.737Z,51.20
2022-12-13T01:01:34.756Z,55.30
2022-12-13T01:02:34.715Z,58.40
2022-12-13T01:03:34.747Z,54.20
2022-12-13T01:04:34.710Z,55.40
2022-12-13T01:06:13.272Z,55.20
2022-12-13T01:06:36.704Z,49.70
2022-12-13T01:07:34.661Z,54.10
2022-12-13T01:08:34.662Z,51.30
2022-12-13T01:09:34.641Z,50.10
2022-12-13T01:10:34.656Z,47.00
2022-12-13T01:11:34.631Z,48.50
2022-12-13T01:12:34.607Z,53.30
2022-12-13T01:13:34.606Z,48.30
2022-12-13T01:14:34.601Z,46.80
2022-12-13T01:15:34.633Z,51.20
2022-12-13T01:16:34.619Z,49.50
2022-12-13T01:17:34.571Z,51.80
2022-12-13T01:18:34.552Z,55.20
2022-12-13T01:19:34.571Z,66.30
2022-12-13T01:20:34.538Z,48.40
2022-12-13T01:21:34.530Z,48.80
2022-12-13T01:22:34.556Z,48.10
2022-12-13T01:23:34.507Z,49.40
2022-12-13T01:24:34.496Z,53.80
2022-12-13T01:25:34.500Z,53.00
2022-12-13T01:26:34.474Z,67.30
2022-12-13T01:27:34.495Z,55.90
2022-12-13T01:28:34.472Z,52.70
2022-12-13T01:29:34.455Z,56.10
2022-12-13T01:30:34.485Z,66.60
2022-12-13T01:31:34.436Z,54.40
2022-12-13T01:32:34.458Z,105.40
2022-12-13T01:33:34.413Z,54.60
2022-12-13T01:34:34.426Z,59.00
2022-12-13T01:35:34.405Z,50.80
2022-12-13T01:36:38.214Z,53.90
2022-12-13T01:37:37.570Z,55.30
2022-12-13T01:38:37.599Z,53.50
2022-12-13T01:39:37.977Z,53.10
2022-12-13T01:40:38.591Z,56.50
2022-12-13T01:41:34.345Z,58.10
2022-12-13T01:42:34.338Z,51.90
2022-12-13T01:43:34.331Z,56.20
2022-12-13T01:44:34.496Z,53.40
2022-12-13T01:45:34.304Z,55.10
2022-12-13T01:46:34.392Z,50.00
2022-12-13T01:47:34.312Z,53.50
2022-12-13T01:48:34.279Z,53.10
2022-12-13T01:49:34.283Z,54.80
2022-12-13T01:50:34.263Z,57.60
2022-12-13T01:51:34.247Z,65.20
2022-12-13T01:52:34.251Z,55.80
2022-12-13T01:53:34.223Z,55.80
2022-12-13T01:54:34.504Z,54.10
2022-12-13T01:55:34.215Z,65.70
2022-12-13T01:56:35.232Z,105.80
2022-12-13T01:57:34.195Z,66.10
2022-12-13T01:58:34.182Z,56.30
2022-12-13T01:59:34.187Z,56.00
2022-12-13T02:00:34.159Z,57.50
2022-12-13T02:01:34.201Z,59.50
2022-12-13T02:02:34.167Z,55.10
2022-12-13T02:03:34.135Z,53.80
2022-12-13T02:04:34.205Z,54.60
2022-12-13T02:05:34.165Z,52.50
2022-12-13T02:06:34.148Z,56.20
2022-12-13T02:07:34.101Z,50.30
2022-12-13T02:08:35.823Z,52.40
2022-12-13T02:09:34.090Z,49.50
2022-12-13T02:10:34.069Z,54.60
2022-12-13T02:11:34.073Z,47.50
2022-12-13T02:12:34.096Z,46.90
2022-12-13T02:13:34.064Z,46.60
2022-12-13T02:14:34.045Z,56.20
2022-12-13T02:15:34.046Z,48.30
2022-12-13T02:16:34.029Z,50.10
2022-12-13T02:17:34.031Z,50.60
2022-12-13T02:18:34.001Z,49.70
2022-12-13T02:19:33.989Z,48.10
2022-12-13T02:20:33.978Z,50.80
2022-12-13T02:21:33.990Z,50.80
2022-12-13T02:22:33.979Z,48.10
2022-12-13T02:23:33.962Z,68.20
2022-12-13T02:24:33.966Z,46.30
2022-12-13T02:25:33.966Z,46.80
2022-12-13T02:26:33.932Z,50.60
2022-12-13T02:27:33.945Z,51.20
2022-12-13T02:28:34.930Z,57.70
2022-12-13T02:29:33.912Z,49.70
2022-12-13T02:30:33.929Z,51.40
2022-12-13T02:31:33.904Z,49.50
2022-12-13T02:32:33.881Z,49.60
2022-12-13T02:33:33.866Z,53.80
2022-12-13T02:34:34.270Z,52.10
2022-12-13T02:35:33.896Z,50.90
2022-12-13T02:36:36.317Z,72.80
2022-12-13T02:37:33.824Z,77.00
2022-12-13T02:38:33.827Z,63.20
2022-12-13T02:39:33.807Z,52.60
2022-12-13T02:40:33.812Z,52.70
2022-12-13T02:41:33.811Z,53.10
2022-12-13T02:42:33.777Z,52.60
2022-12-13T02:43:34.109Z,48.40
2022-12-13T02:44:33.770Z,47.30
2022-12-13T02:45:33.765Z,46.50
2022-12-13T02:46:33.788Z,43.80
2022-12-13T02:47:33.727Z,45.00
2022-12-13T02:48:33.705Z,44.30
2022-12-13T02:49:33.724Z,44.50
2022-12-13T02:50:33.710Z,49.00
2022-12-13T02:51:33.734Z,42.60
2022-12-13T02:52:33.696Z,45.30
2022-12-13T02:53:33.982Z,52.10
2022-12-13T02:54:33.681Z,56.50
2022-12-13T02:55:33.667Z,65.90
2022-12-13T02:56:33.686Z,51.70
2022-12-13T02:57:33.635Z,49.70
2022-12-13T02:58:33.643Z,48.80
2022-12-13T02:59:33.622Z,75.60
2022-12-13T03:00:33.610Z,46.60
2022-12-13T03:01:39.989Z,44.30
2022-12-13T03:02:34.699Z,45.30
2022-12-13T03:03:33.694Z,41.80
2022-12-13T03:04:41.103Z,40.60
2022-12-13T03:05:33.547Z,39.80
2022-12-13T03:06:34.647Z,37.90
2022-12-13T03:07:33.520Z,52.20
2022-12-13T03:08:33.519Z,47.20
2022-12-13T03:09:33.513Z,43.00
2022-12-13T03:10:33.521Z,42.00
2022-12-13T03:11:33.480Z,46.10
2022-12-13T03:12:33.476Z,42.40
2022-12-13T03:13:33.473Z,43.90
2022-12-13T03:14:33.506Z,44.20
2022-12-13T03:15:33.471Z,49.00
2022-12-13T03:16:33.435Z,44.30
2022-12-13T03:17:33.428Z,42.20
2022-12-13T03:18:33.414Z,39.80
2022-12-13T03:19:33.411Z,42.30
2022-12-13T03:20:33.419Z,41.40
2022-12-13T03:21:33.400Z,43.20
2022-12-13T03:22:33.392Z,43.50
2022-12-13T03:23:33.400Z,39.90
2022-12-13T03:24:33.379Z,40.50
2022-12-13T03:25:33.374Z,42.00
2022-12-13T03:26:33.377Z,59.20
2022-12-13T03:27:33.339Z,42.30
2022-12-13T03:28:33.352Z,44.20
2022-12-13T03:29:33.336Z,39.90
2022-12-13T03:30:33.318Z,40.20
2022-12-13T03:31:33.335Z,38.30
2022-12-13T03:32:33.297Z,39.90
2022-12-13T03:33:33.326Z,37.00
2022-12-13T03:34:44.585Z,45.20
2022-12-13T03:35:45.156Z,39.00
2022-12-13T03:36:34.267Z,42.00
2022-12-13T03:37:33.247Z,43.90
2022-12-13T03:38:33.253Z,36.10
2022-12-13T03:39:33.444Z,35.30
2022-12-13T03:40:33.228Z,39.20
2022-12-13T03:41:33.211Z,41.90
2022-12-13T03:42:33.202Z,38.90
2022-12-13T03:43:33.212Z,39.90
2022-12-13T03:44:33.209Z,37.20
2022-12-13T03:45:33.180Z,36.10
2022-12-13T03:46:33.202Z,37.40
2022-12-13T03:47:33.155Z,34.70
2022-12-13T03:48:33.140Z,38.10
2022-12-13T03:49:35.093Z,39.20
2022-12-13T03:50:33.130Z,36.50
2022-12-13T03:51:33.119Z,41.20
2022-12-13T03:52:33.121Z,42.20
2022-12-13T03:53:34.567Z,39.80
2022-12-13T03:54:33.325Z,45.00
2022-12-13T03:55:33.112Z,43.30
2022-12-13T03:56:33.071Z,38.50
2022-12-13T03:57:33.062Z,47.50
2022-12-13T03:58:35.321Z,41.70
2022-12-13T03:59:33.069Z,38.60
2022-12-13T04:00:33.031Z,42.20
2022-12-13T04:01:33.060Z,40.70
2022-12-13T04:02:33.018Z,38.00
2022-12-13T04:03:33.003Z,40.10
2022-12-13T04:04:33.021Z,38.70
2022-12-13T04:05:32.992Z,41.30
2022-12-13T04:06:33.386Z,42.40
2022-12-13T04:07:34.612Z,40.20
2022-12-13T04:08:33.028Z,36.90
2022-12-13T04:09:32.963Z,39.20
2022-12-13T04:10:32.998Z,39.00
2022-12-13T04:11:32.935Z,36.90
2022-12-13T04:12:32.930Z,35.80
2022-12-13T04:13:32.941Z,39.00
2022-12-13T04:14:32.909Z,37.40
2022-12-13T04:15:32.892Z,36.70
2022-12-13T04:16:32.932Z,37.80
2022-12-13T04:17:32.881Z,37.80
2022-12-13T04:18:32.865Z,39.10
2022-12-13T04:19:32.876Z,37.50
2022-12-13T04:20:32.846Z,40.60
2022-12-13T04:21:32.854Z,40.70
2022-12-13T04:22:32.829Z,43.20
2022-12-13T04:23:32.814Z,43.80
2022-12-13T04:24:32.836Z,39.70
2022-12-13T04:25:32.798Z,47.00
2022-12-13T04:26:32.802Z,39.90
2022-12-13T04:27:32.802Z,39.50
2022-12-13T04:28:32.772Z,45.00
2022-12-13T04:29:34.687Z,47.80
2022-12-13T04:30:32.754Z,45.80
2022-12-13T04:31:32.806Z,44.40
2022-12-13T04:32:32.747Z,48.70
2022-12-13T04:33:32.833Z,45.40
2022-12-13T04:34:37.220Z,45.60
2022-12-13T04:35:32.704Z,50.80
2022-12-13T04:36:32.996Z,40.40
2022-12-13T04:37:33.678Z,45.10
2022-12-13T04:38:32.681Z,43.20
2022-12-13T04:39:34.328Z,45.20
2022-12-13T04:40:32.682Z,43.60
2022-12-13T04:41:34.441Z,41.10
2022-12-13T04:42:32.659Z,42.60
2022-12-13T04:43:32.683Z,40.80
2022-12-13T04:44:36.563Z,41.20
2022-12-13T04:45:33.641Z,49.60
2022-12-13T04:46:32.617Z,43.20
2022-12-13T04:47:32.632Z,45.80
2022-12-13T04:48:32.610Z,43.90
2022-12-13T04:49:32.577Z,42.50
2022-12-13T04:50:32.563Z,41.20
2022-12-13T04:51:33.562Z,43.50
2022-12-13T04:52:32.548Z,42.80
2022-12-13T04:53:32.580Z,42.80
2022-12-13T04:54:36.176Z,43.60
2022-12-13T04:55:32.512Z,41.80
2022-12-13T04:56:32.508Z,43.60
2022-12-13T04:57:32.500Z,43.80
2022-12-13T04:58:32.527Z,43.40
2022-12-13T04:59:32.495Z,43.90
2022-12-13T05:00:32.468Z,43.10
2022-12-13T05:01:32.518Z,45.90
2022-12-13T05:02:32.584Z,40.20
2022-12-13T05:03:32.460Z,41.90
2022-12-13T05:04:33.322Z,51.70
2022-12-13T05:05:33.445Z,40.50
2022-12-13T05:06:32.426Z,40.30
2022-12-13T05:07:32.418Z,42.50
2022-12-13T05:08:32.441Z,42.40
2022-12-13T05:09:32.422Z,43.60
2022-12-13T05:10:37.804Z,45.10
2022-12-13T05:11:35.388Z,48.10
2022-12-13T05:12:32.359Z,43.30
2022-12-13T05:13:32.363Z,46.30
2022-12-13T05:14:32.361Z,42.20
2022-12-13T05:15:32.353Z,42.70
2022-12-13T05:16:32.390Z,43.40
2022-12-13T05:17:32.314Z,44.50
2022-12-13T05:18:32.307Z,47.40
2022-12-13T05:19:32.295Z,44.70
2022-12-13T05:20:32.289Z,47.20
2022-12-13T05:21:32.285Z,47.70
2022-12-13T05:22:32.288Z,43.10
2022-12-13T05:23:32.265Z,41.90
2022-12-13T05:24:32.260Z,42.40
2022-12-13T05:25:32.235Z,44.80
2022-12-13T05:26:32.219Z,41.50
2022-12-13T05:27:32.275Z,41.10
2022-12-13T05:28:32.211Z,43.20
2022-12-13T05:29:32.192Z,48.80
2022-12-13T05:30:32.210Z,41.80
2022-12-13T05:31:32.267Z,41.20
2022-12-13T05:32:32.183Z,42.70
2022-12-13T05:33:32.174Z,43.10
2022-12-13T05:34:32.164Z,45.10
2022-12-13T05:35:32.178Z,43.00
2022-12-13T05:36:32.130Z,46.00
2022-12-13T05:37:34.758Z,43.20
2022-12-13T05:38:32.148Z,48.00
2022-12-13T05:39:32.160Z,43.10
2022-12-13T05:40:32.097Z,46.90
2022-12-13T05:41:32.086Z,46.60
2022-12-13T05:42:32.091Z,47.80
2022-12-13T05:43:42.320Z,43.80
2022-12-13T05:44:32.055Z,45.00
2022-12-13T05:45:32.303Z,41.90
2022-12-13T05:46:36.828Z,46.10
2022-12-13T05:47:32.044Z,45.60
2022-12-13T05:48:32.032Z,43.60
2022-12-13T05:49:32.236Z,39.10
2022-12-13T05:50:32.016Z,41.70
2022-12-13T05:51:32.032Z,42.80
2022-12-13T05:52:31.985Z,43.80
2022-12-13T05:53:31.984Z,43.20
2022-12-13T05:54:31.975Z,40.00
2022-12-13T05:55:31.980Z,37.70
2022-12-13T05:56:31.941Z,41.60
2022-12-13T05:57:31.967Z,39.60
2022-12-13T05:58:35.937Z,42.80
2022-12-13T05:59:31.942Z,38.00
2022-12-13T06:00:31.928Z,42.90
2022-12-13T06:01:31.943Z,40.50
2022-12-13T06:02:32.068Z,40.20
2022-12-13T06:03:32.013Z,38.60
2022-12-13T06:04:31.881Z,38.10
2022-12-13T06:05:31.868Z,40.20
2022-12-13T06:06:31.865Z,38.10
2022-12-13T06:07:31.873Z,38.60
2022-12-13T06:08:31.893Z,40.40
2022-12-13T06:09:31.823Z,40.40
2022-12-13T06:10:34.881Z,38.10
2022-12-13T06:11:32.648Z,37.50
2022-12-13T06:12:32.804Z,38.10
2022-12-13T06:13:32.595Z,36.50
2022-12-13T06:14:31.788Z,39.20
2022-12-13T06:15:34.790Z,38.40
2022-12-13T06:16:31.834Z,39.10
2022-12-13T06:17:31.846Z,41.00
2022-12-13T06:18:31.744Z,39.20
2022-12-13T06:19:31.747Z,38.50
2022-12-13T06:20:31.724Z,40.30
2022-12-13T06:21:41.258Z,40.50
2022-12-13T06:22:33.713Z,39.50
2022-12-13T06:23:31.720Z,38.50
2022-12-13T06:24:31.693Z,42.60
2022-12-13T06:25:32.236Z,39.10
2022-12-13T06:26:32.704Z,43.50
2022-12-13T06:27:31.661Z,42.70
2022-12-13T06:28:31.689Z,45.30
2022-12-13T06:29:31.643Z,39.80
2022-12-13T06:30:31.746Z,41.70
2022-12-13T06:31:31.664Z,39.80
2022-12-13T06:32:31.619Z,41.10
2022-12-13T06:33:31.609Z,42.20
2022-12-13T06:34:31.593Z,41.20
2022-12-13T06:35:35.266Z,42.40
2022-12-13T06:36:33.594Z,39.30
2022-12-13T06:37:31.606Z,42.10
2022-12-13T06:38:33.148Z,45.30
2022-12-13T06:39:32.711Z,46.00
2022-12-13T06:40:31.549Z,43.40
2022-12-13T06:41:32.353Z,46.30
2022-12-13T06:42:32.551Z,42.10
2022-12-13T06:43:31.520Z,47.20
2022-12-13T06:44:31.714Z,43.80
2022-12-13T06:45:31.497Z,46.20
2022-12-13T06:46:31.559Z,44.60
2022-12-13T06:47:32.589Z,45.00
2022-12-13T06:48:31.471Z,43.60
2022-12-13T06:49:32.381Z,49.00
2022-12-13T06:50:31.470Z,46.60
2022-12-13T06:51:33.094Z,47.00
2022-12-13T06:52:31.443Z,48.70
2022-12-13T06:53:31.427Z,48.90
2022-12-13T06:54:31.423Z,47.20
2022-12-13T06:55:31.429Z,46.50
2022-12-13T06:56:31.417Z,47.50
2022-12-13T06:57:31.390Z,48.50
2022-12-13T06:58:31.403Z,47.70
2022-12-13T06:59:31.367Z,43.90
2022-12-13T07:00:38.176Z,47.10
2022-12-13T07:01:36.761Z,44.70
2022-12-13T07:02:32.515Z,49.10
2022-12-13T07:03:31.394Z,46.10
2022-12-13T07:04:31.539Z,45.00
2022-12-13T07:05:31.332Z,45.00
2022-12-13T07:06:31.317Z,45.70
2022-12-13T07:07:31.299Z,43.10
2022-12-13T07:08:31.343Z,41.50
2022-12-13T07:09:31.286Z,43.80
2022-12-13T07:10:31.288Z,43.30
2022-12-13T07:11:31.254Z,43.50
2022-12-13T07:12:31.252Z,41.20
2022-12-13T07:13:31.261Z,43.30
2022-12-13T07:14:31.239Z,44.60
2022-12-13T07:15:31.257Z,46.10
2022-12-13T07:16:31.256Z,46.00
2022-12-13T07:17:31.870Z,43.20
2022-12-13T07:18:32.193Z,45.60
2022-12-13T07:19:35.223Z,42.50
2022-12-13T07:20:31.185Z,42.70
2022-12-13T07:21:31.216Z,40.10
2022-12-13T07:22:34.855Z,41.90
2022-12-13T07:23:31.137Z,35.40
2022-12-13T07:24:31.136Z,40.70
2022-12-13T07:25:32.132Z,41.90
2022-12-13T07:26:31.139Z,40.00
2022-12-13T07:27:31.132Z,40.40
2022-12-13T07:28:31.097Z,38.10
2022-12-13T07:29:31.093Z,39.40
2022-12-13T07:30:31.088Z,40.10
2022-12-13T07:31:31.116Z,37.50
2022-12-13T07:32:31.090Z,40.70
2022-12-13T07:33:31.053Z,39.70
2022-12-13T07:34:31.054Z,40.60
2022-12-13T07:35:31.038Z,40.50
2022-12-13T07:36:32.024Z,45.60
2022-12-13T07:37:31.329Z,42.50
2022-12-13T07:38:32.064Z,42.60
2022-12-13T07:39:31.020Z,40.30
2022-12-13T07:40:30.985Z,40.10
2022-12-13T07:41:31.054Z,43.60
2022-12-13T07:42:30.983Z,40.30
2022-12-13T07:43:30.965Z,42.20
2022-12-13T07:44:31.003Z,39.60
2022-12-13T07:45:30.947Z,43.00
2022-12-13T07:46:32.487Z,37.90
2022-12-13T07:47:30.940Z,42.40
2022-12-13T07:48:30.953Z,42.10
2022-12-13T07:49:30.926Z,41.50
2022-12-13T07:50:37.352Z,41.30
2022-12-13T07:51:31.897Z,42.40
2022-12-13T07:52:30.886Z,40.40
2022-12-13T07:53:33.206Z,43.00
2022-12-13T07:54:30.882Z,42.10
2022-12-13T07:55:33.222Z,37.00
2022-12-13T07:56:30.851Z,38.10
2022-12-13T07:57:30.833Z,36.50
2022-12-13T07:58:31.112Z,39.60
2022-12-13T07:59:30.844Z,40.40
2022-12-13T08:00:30.819Z,39.40
2022-12-13T08:01:30.863Z,39.40
2022-12-13T08:02:30.800Z,42.00
2022-12-13T08:03:30.812Z,39.80
2022-12-13T08:04:37.453Z,41.60
2022-12-13T08:05:38.324Z,41.60
2022-12-13T08:06:31.771Z,43.60
2022-12-13T08:07:30.735Z,39.00
2022-12-13T08:08:31.655Z,38.90
2022-12-13T08:09:30.763Z,44.00
2022-12-13T08:10:30.720Z,41.50
2022-12-13T08:11:30.714Z,40.60
2022-12-13T08:12:30.735Z,39.50
2022-12-13T08:13:30.694Z,43.60
2022-12-13T08:14:30.677Z,44.30
2022-12-13T08:15:31.706Z,42.60
2022-12-13T08:16:30.791Z,42.70
2022-12-13T08:17:30.654Z,40.10
2022-12-13T08:18:30.667Z,40.10
2022-12-13T08:19:30.662Z,41.50
2022-12-13T08:20:30.643Z,36.00
2022-12-13T08:21:53.290Z,38.80
2022-12-13T08:22:36.102Z,39.60
2022-12-13T08:23:30.605Z,39.60
2022-12-13T08:24:30.658Z,38.50
2022-12-13T08:25:30.583Z,36.90
2022-12-13T08:26:30.573Z,39.60
2022-12-13T08:27:30.583Z,35.30
2022-12-13T08:28:30.553Z,37.70
2022-12-13T08:29:34.371Z,36.70
2022-12-13T08:30:30.554Z,34.30
2022-12-13T08:31:34.016Z,33.00
2022-12-13T08:32:30.544Z,35.40
2022-12-13T08:33:30.519Z,36.10
2022-12-13T08:34:30.526Z,35.50
2022-12-13T08:35:34.012Z,35.10
2022-12-13T08:36:31.505Z,37.30
2022-12-13T08:37:30.462Z,36.70
2022-12-13T08:38:30.475Z,38.10
2022-12-13T08:39:30.474Z,38.10
2022-12-13T08:40:30.473Z,36.40
2022-12-13T08:41:34.464Z,39.40
2022-12-13T08:42:32.436Z,36.70
2022-12-13T08:43:30.414Z,36.40
2022-12-13T08:44:30.409Z,36.00
2022-12-13T08:45:30.423Z,36.20
2022-12-13T08:46:30.429Z,34.20
2022-12-13T08:47:30.393Z,36.20
2022-12-13T08:48:30.364Z,36.20
2022-12-13T08:49:30.378Z,36.00
2022-12-13T08:50:30.394Z,39.60
2022-12-13T08:51:35.612Z,39.60
2022-12-13T08:52:31.330Z,39.30
2022-12-13T08:53:40.667Z,38.40
2022-12-13T08:54:31.941Z,37.80
2022-12-13T08:55:32.274Z,40.50
2022-12-13T08:56:30.299Z,40.50
2022-12-13T08:57:30.289Z,41.20
2022-12-13T08:58:30.272Z,41.90
2022-12-13T08:59:30.271Z,39.80
2022-12-13T09:00:36.070Z,40.00
2022-12-13T09:01:31.282Z,40.30
2022-12-13T09:02:30.313Z,39.50
2022-12-13T09:03:30.226Z,39.40
2022-12-13T09:04:31.412Z,39.80
2022-12-13T09:06:02.618Z,39.50
2022-12-13T09:06:30.218Z,38.50
2022-12-13T09:07:30.246Z,40.00
2022-12-13T09:08:35.027Z,37.50
2022-12-13T09:09:31.186Z,41.00
2022-12-13T09:10:38.259Z,39.70
2022-12-13T09:11:34.965Z,43.80
2022-12-13T09:12:31.276Z,42.00
2022-12-13T09:13:31.544Z,43.60
2022-12-13T09:14:34.169Z,38.00
2022-12-13T09:15:34.008Z,44.70
2022-12-13T09:16:30.285Z,42.50
2022-12-13T09:17:30.280Z,39.40
2022-12-13T09:18:36.647Z,41.30
2022-12-13T09:19:36.956Z,41.70
2022-12-13T09:20:31.112Z,43.70
2022-12-13T09:21:32.222Z,43.50
2022-12-13T09:22:33.228Z,42.30
2022-12-13T09:23:30.289Z,41.00
2022-12-13T09:24:36.663Z,45.80
2022-12-13T09:25:36.792Z,39.00
2022-12-13T09:26:37.805Z,39.90
2022-12-13T09:27:31.018Z,37.70
2022-12-13T09:28:31.026Z,42.50
2022-12-13T09:29:29.991Z,40.90
2022-12-13T09:30:31.645Z,41.10
2022-12-13T09:31:30.063Z,40.30
2022-12-13T09:32:29.972Z,39.80
2022-12-13T09:33:31.334Z,37.00
2022-12-13T09:34:30.004Z,38.70
2022-12-13T09:35:30.022Z,40.50
2022-12-13T09:36:29.936Z,39.30
2022-12-13T09:37:29.923Z,37.90
2022-12-13T09:38:29.906Z,36.80
2022-12-13T09:39:29.909Z,37.40
2022-12-13T09:40:29.980Z,38.00
2022-12-13T09:41:29.921Z,37.30
2022-12-13T09:42:30.176Z,38.00
2022-12-13T09:43:32.743Z,41.70
2022-12-13T09:44:45.133Z,37.60
2022-12-13T09:45:32.022Z,38.60
2022-12-13T09:46:34.880Z,38.80
2022-12-13T09:47:35.438Z,37.30
2022-12-13T09:48:34.620Z,33.30
2022-12-13T09:49:34.880Z,40.50
2022-12-13T09:50:37.083Z,38.70
2022-12-13T09:51:41.203Z,40.30
2022-12-13T09:52:33.428Z,38.50
2022-12-13T09:53:33.410Z,41.00
2022-12-13T09:54:29.788Z,38.30
2022-12-13T09:55:30.273Z,37.50
2022-12-13T09:56:29.738Z,41.80
2022-12-13T09:57:31.253Z,39.50
2022-12-13T09:58:29.716Z,38.00
2022-12-13T09:59:29.741Z,36.50
2022-12-13T10:00:29.722Z,38.70
2022-12-13T10:01:29.754Z,39.80
2022-12-13T10:02:29.879Z,38.20
2022-12-13T10:03:29.687Z,38.70
2022-12-13T10:04:29.663Z,41.60
2022-12-13T10:05:37.247Z,38.80
2022-12-13T10:06:30.672Z,39.40
2022-12-13T10:07:29.615Z,38.50
2022-12-13T10:08:29.620Z,42.80
2022-12-13T10:09:29.649Z,43.00
2022-12-13T10:10:29.590Z,40.40
2022-12-13T10:11:31.756Z,46.90
2022-12-13T10:12:29.582Z,44.60
2022-12-13T10:13:29.590Z,47.90
2022-12-13T10:14:29.562Z,48.70
2022-12-13T10:15:29.586Z,47.70
2022-12-13T10:16:36.165Z,44.50
2022-12-13T10:17:29.545Z,47.90
2022-12-13T10:18:30.554Z,46.30
2022-12-13T10:19:30.253Z,49.60
2022-12-13T10:20:30.501Z,49.80
2022-12-13T10:21:29.483Z,51.50
2022-12-13T10:22:29.501Z,49.90
2022-12-13T10:23:47.075Z,49.40
2022-12-13T10:24:36.750Z,50.10
2022-12-13T10:25:30.466Z,51.10
2022-12-13T10:26:29.488Z,52.00
2022-12-13T10:27:29.458Z,51.60
2022-12-13T10:28:29.476Z,50.50
2022-12-13T10:29:29.420Z,54.00
2022-12-13T10:30:29.581Z,52.80
2022-12-13T10:31:30.478Z,52.40
2022-12-13T10:32:29.386Z,52.70
2022-12-13T10:33:29.379Z,53.20
2022-12-13T10:34:29.373Z,51.50
2022-12-13T10:35:29.403Z,52.90
2022-12-13T10:36:29.378Z,51.10
2022-12-13T10:37:29.351Z,54.60
2022-12-13T10:38:31.943Z,52.40
2022-12-13T10:39:29.341Z,54.80
2022-12-13T10:40:32.161Z,52.50
2022-12-13T10:41:29.332Z,51.90
2022-12-13T10:42:33.900Z,49.10
2022-12-13T10:43:30.297Z,52.10
2022-12-13T10:44:29.265Z,51.70
2022-12-13T10:45:29.309Z,55.50
2022-12-13T10:46:29.280Z,49.20
2022-12-13T10:47:29.258Z,53.10
2022-12-13T10:48:29.258Z,52.30
2022-12-13T10:49:30.273Z,49.90
2022-12-13T10:50:29.283Z,55.20
2022-12-13T10:51:29.218Z,47.30
2022-12-13T10:52:31.652Z,48.20
2022-12-13T10:53:29.223Z,48.30
2022-12-13T10:54:29.235Z,49.70
2022-12-13T10:55:30.220Z,50.60
2022-12-13T10:56:29.180Z,44.90
2022-12-13T10:57:29.178Z,45.20
2022-12-13T10:58:29.161Z,47.20
2022-12-13T10:59:29.207Z,50.10
2022-12-13T11:00:29.156Z,51.40
2022-12-13T11:01:29.175Z,47.80
2022-12-13T11:02:29.274Z,44.80
2022-12-13T11:03:29.115Z,47.80
2022-12-13T11:04:29.126Z,48.00
2022-12-13T11:05:29.080Z,50.10
2022-12-13T11:06:29.086Z,46.20
2022-12-13T11:07:29.089Z,48.60
2022-12-13T11:08:29.240Z,48.60
2022-12-13T11:09:29.086Z,45.20
2022-12-13T11:10:30.045Z,45.60
2022-12-13T11:11:29.058Z,46.30
2022-12-13T11:12:29.062Z,44.10
2022-12-13T11:13:29.017Z,45.20
2022-12-13T11:14:32.343Z,46.30
2022-12-13T11:15:28.994Z,47.70
2022-12-13T11:16:29.020Z,46.00
2022-12-13T11:17:28.989Z,44.60
2022-12-13T11:18:28.954Z,44.30
2022-12-13T11:19:28.994Z,46.40
2022-12-13T11:20:28.998Z,45.50
2022-12-13T11:21:28.963Z,46.90
2022-12-13T11:22:28.908Z,46.30
2022-12-13T11:23:28.918Z,45.80
2022-12-13T11:24:28.887Z,45.90
2022-12-13T11:25:28.901Z,48.50
2022-12-13T11:26:28.914Z,45.40
2022-12-13T11:27:28.904Z,46.10
2022-12-13T11:28:28.886Z,44.90
2022-12-13T11:29:28.881Z,45.30
2022-12-13T11:30:28.875Z,48.70
2022-12-13T11:31:28.900Z,44.20
2022-12-13T11:32:28.816Z,45.00
2022-12-13T11:33:28.830Z,48.30
2022-12-13T11:34:28.853Z,43.10
2022-12-13T11:35:28.803Z,46.50
2022-12-13T11:36:28.788Z,41.50
2022-12-13T11:37:28.769Z,40.30
2022-12-13T11:38:28.797Z,41.40
2022-12-13T11:39:28.769Z,43.20
2022-12-13T11:40:28.764Z,40.50
2022-12-13T11:41:31.663Z,41.30
2022-12-13T11:42:28.736Z,41.30
2022-12-13T11:43:28.730Z,43.40
2022-12-13T11:44:28.695Z,36.00
2022-12-13T11:45:28.736Z,37.40
2022-12-13T11:46:28.720Z,37.20
2022-12-13T11:47:28.671Z,38.80
2022-12-13T11:48:29.079Z,41.00
2022-12-13T11:49:28.646Z,35.70
2022-12-13T11:50:33.558Z,38.90
2022-12-13T11:51:28.635Z,37.90
2022-12-13T11:52:28.639Z,38.60
2022-12-13T11:53:29.120Z,35.90
2022-12-13T11:54:28.616Z,37.40
2022-12-13T11:55:28.625Z,41.30
2022-12-13T11:56:28.646Z,34.30
2022-12-13T11:57:28.589Z,36.90
2022-12-13T11:59:29.803Z,38.70
2022-12-13T12:00:33.682Z,42.30
2022-12-13T12:01:28.575Z,39.00
2022-12-13T12:02:28.677Z,40.50
2022-12-13T12:03:28.615Z,42.80
2022-12-13T12:04:28.519Z,41.10
2022-12-13T12:05:28.635Z,38.20
2022-12-13T12:06:28.493Z,39.80
2022-12-13T12:07:33.241Z,37.30
2022-12-13T12:08:43.172Z,39.20
2022-12-13T12:09:29.459Z,38.10
2022-12-13T12:10:28.496Z,36.90
2022-12-13T12:11:28.509Z,36.40
2022-12-13T12:12:28.461Z,37.60
2022-12-13T12:13:28.466Z,33.30
2022-12-13T12:14:28.501Z,33.50
2022-12-13T12:15:28.425Z,33.70
2022-12-13T12:16:28.528Z,35.70
2022-12-13T12:17:31.260Z,35.50
2022-12-13T12:18:28.871Z,35.80
2022-12-13T12:19:28.370Z,33.50
2022-12-13T12:20:28.421Z,35.50
2022-12-13T12:21:42.698Z,35.50
2022-12-13T12:22:30.341Z,38.30
2022-12-13T12:23:28.332Z,34.60
2022-12-13T12:24:28.358Z,30.80
2022-12-13T12:25:28.345Z,32.60
2022-12-13T12:26:28.340Z,31.70
2022-12-13T12:27:28.294Z,32.60
2022-12-13T12:28:28.782Z,33.80
2022-12-13T12:29:28.287Z,31.50
2022-12-13T12:30:28.252Z,33.30
2022-12-13T12:31:28.429Z,33.30
2022-12-13T12:32:28.253Z,31.40
2022-12-13T12:33:28.261Z,31.30
2022-12-13T12:34:28.269Z,31.70
2022-12-13T12:35:28.219Z,30.60
2022-12-13T12:36:30.205Z,31.30
2022-12-13T12:37:28.197Z,32.60
2022-12-13T12:38:28.737Z,32.70
2022-12-13T12:39:28.266Z,33.60
2022-12-13T12:40:40.097Z,30.50
2022-12-13T12:41:30.168Z,32.50
2022-12-13T12:42:28.155Z,30.40
2022-12-13T12:43:28.696Z,32.20
2022-12-13T12:44:30.864Z,31.50
2022-12-13T12:45:55.212Z,31.50
2022-12-13T12:46:30.151Z,29.60
2022-12-13T12:47:48.994Z,32.70
2022-12-13T12:48:52.020Z,33.70
2022-12-13T12:49:30.111Z,33.00
2022-12-13T12:50:28.080Z,32.80
2022-12-13T12:51:28.058Z,33.00
2022-12-13T12:52:28.096Z,32.30
2022-12-13T12:53:28.041Z,32.90
2022-12-13T12:54:32.302Z,30.60